Time;durP1;ratioP1;P1;durP2;ratioP2;P2;SDS_P1;SDS_P2;PMS_P1;PMS_P2;Temp;Humidity;BMP_temperature;BMP_pressure;BME280_temperature;BME280_humidity;BME280_pressure;Samples;Min_cycle;Max_cycle;Signal;HPM_P1;HPM_P2
2023/12/23 00:02:21;;;;;;;21.20;2.22;;;;;;;;;;5111296;28;20056;-75
2023/12/23 00:04:47;;;;;;;43.30;3.53;;;;;;;;;;5112212;28;20026;-76
2023/12/23 00:07:14;;;;;;;18.02;2.45;;;;;;;;;;5114300;28;20023;-74
2023/12/23 00:09:41;;;;;;;22.17;3.50;;;;;;;;;;5111438;28;20157;-75
2023/12/23 00:12:08;;;;;;;24.65;2.95;;;;;;;;;;5110518;28;20368;-76
2023/12/23 00:14:37;;;;;;;26.20;3.15;;;;;;;;;;5109957;28;20471;-76
2023/12/23 00:17:03;;;;;;;16.13;2.72;;;;;;;;;;5110567;28;20095;-75
2023/12/23 00:19:29;;;;;;;17.80;2.33;;;;;;;;;;5110717;28;20072;-76
2023/12/23 00:21:55;;;;;;;17.10;2.88;;;;;;;;;;5110319;28;20077;-77
2023/12/23 00:24:24;;;;;;;17.23;2.50;;;;;;;;;;5110543;28;20030;-77
2023/12/23 00:26:50;;;;;;;21.35;3.03;;;;;;;;;;5114139;28;20024;-75
2023/12/23 00:29:16;;;;;;;24.92;3.33;;;;;;;;;;5113831;28;20348;-76
2023/12/23 00:31:42;;;;;;;22.52;2.88;;;;;;;;;;5113828;28;20039;-76
2023/12/23 00:34:08;;;;;;;17.15;2.45;;;;;;;;;;5114255;28;20085;-75
2023/12/23 00:36:34;;;;;;;20.95;2.67;;;;;;;;;;5114144;28;20497;-76
2023/12/23 00:39:00;;;;;;;23.48;3.80;;;;;;;;;;5114186;28;20055;-77
2023/12/23 00:41:26;;;;;;;21.75;3.40;;;;;;;;;;5113108;27;20027;-76
2023/12/23 00:43:52;;;;;;;22.23;2.95;;;;;;;;;;5113934;28;20062;-76
2023/12/23 00:46:20;;;;;;;17.08;2.45;;;;;;;;;;5114257;28;20031;-76
2023/12/23 00:48:46;;;;;;;21.92;3.03;;;;;;;;;;5114012;28;20020;-75
2023/12/23 00:51:12;;;;;;;21.73;2.45;;;;;;;;;;5113520;28;20047;-77
2023/12/23 00:53:38;;;;;;;20.83;2.78;;;;;;;;;;5113813;28;20448;-76
2023/12/23 00:56:05;;;;;;;24.92;3.10;;;;;;;;;;5113729;28;20055;-76
2023/12/23 00:58:31;;;;;;;32.65;3.65;;;;;;;;;;5114000;27;20106;-77
2023/12/23 01:00:57;;;;;;;27.98;3.38;;;;;;;;;;5113714;28;20077;-76
2023/12/23 01:03:23;;;;;;;17.45;2.72;;;;;;;;;;5113510;28;20023;-74
2023/12/23 01:05:49;;;;;;;21.20;3.15;;;;;;;;;;5113991;28;20107;-76
2023/12/23 01:08:15;;;;;;;22.55;3.22;;;;;;;;;;5113173;28;20059;-76
2023/12/23 01:10:41;;;;;;;17.17;2.35;;;;;;;;;;5113140;28;20034;-77
2023/12/23 01:13:07;;;;;;;31.95;3.10;;;;;;;;;;5113638;28;20108;-77
2023/12/23 01:15:33;;;;;;;23.95;3.53;;;;;;;;;;5113664;28;20047;-78
2023/12/23 01:17:59;;;;;;;21.15;2.97;;;;;;;;;;5113326;28;20399;-75
2023/12/23 01:20:25;;;;;;;24.58;2.88;;;;;;;;;;5112339;28;20019;-75
2023/12/23 01:22:51;;;;;;;13.68;2.67;;;;;;;;;;5113316;28;20436;-74
2023/12/23 01:25:17;;;;;;;29.13;2.92;;;;;;;;;;5113447;28;20024;-75
2023/12/23 01:27:43;;;;;;;32.30;3.65;;;;;;;;;;5113569;28;20027;-75
2023/12/23 01:30:09;;;;;;;20.83;2.75;;;;;;;;;;5112864;28;20112;-75
2023/12/23 01:32:35;;;;;;;21.33;2.58;;;;;;;;;;5113228;28;20047;-76
2023/12/23 01:35:01;;;;;;;18.05;2.25;;;;;;;;;;5112493;28;20478;-76
2023/12/23 01:37:27;;;;;;;20.25;2.60;;;;;;;;;;5112215;28;20024;-75
2023/12/23 01:39:53;;;;;;;29.48;2.78;;;;;;;;;;5112954;28;20471;-75
2023/12/23 01:42:19;;;;;;;20.05;2.30;;;;;;;;;;5112243;28;20039;-75
2023/12/23 01:44:45;;;;;;;25.70;3.53;;;;;;;;;;5112805;28;20066;-75
2023/12/23 01:47:11;;;;;;;17.85;2.88;;;;;;;;;;5112332;28;20023;-75
2023/12/23 01:49:37;;;;;;;20.85;2.70;;;;;;;;;;5111795;28;20467;-75
2023/12/23 01:52:03;;;;;;;22.73;2.90;;;;;;;;;;5112738;28;20395;-75
2023/12/23 01:54:30;;;;;;;33.92;2.83;;;;;;;;;;5113301;28;20027;-75
2023/12/23 01:56:56;;;;;;;31.33;3.17;;;;;;;;;;5115214;28;20036;-78
2023/12/23 01:59:22;;;;;;;21.95;2.72;;;;;;;;;;5113658;28;20510;-77
2023/12/23 02:01:48;;;;;;;20.58;2.70;;;;;;;;;;5113602;28;20031;-78
2023/12/23 02:04:15;;;;;;;23.52;2.65;;;;;;;;;;5113790;28;20019;-77
2023/12/23 02:06:41;;;;;;;23.83;2.67;;;;;;;;;;5113153;28;20149;-77
2023/12/23 02:09:07;;;;;;;24.88;2.90;;;;;;;;;;5112940;28;20103;-80
2023/12/23 02:11:52;;;;;;;37.03;3.75;;;;;;;;;;5111311;28;20032;-77
2023/12/23 02:14:21;;;;;;;23.88;3.50;;;;;;;;;;5104030;28;20027;-75
2023/12/23 02:16:48;;;;;;;23.20;3.03;;;;;;;;;;5110845;28;20391;-76
2023/12/23 02:19:14;;;;;;;25.92;3.42;;;;;;;;;;5090757;28;20032;-78
2023/12/23 02:21:40;;;;;;;29.25;3.70;;;;;;;;;;5092443;28;20028;-77
2023/12/23 02:24:06;;;;;;;28.85;3.22;;;;;;;;;;5111986;28;20064;-76
2023/12/23 02:26:34;;;;;;;19.55;3.08;;;;;;;;;;5112179;28;20027;-78
2023/12/23 02:29:01;;;;;;;18.77;2.30;;;;;;;;;;5112010;28;20050;-78
2023/12/23 02:31:28;;;;;;;28.25;3.15;;;;;;;;;;5111360;28;20047;-77
2023/12/23 02:33:54;;;;;;;25.45;3.08;;;;;;;;;;5111590;28;20036;-75
2023/12/23 02:36:23;;;;;;;21.50;3.28;;;;;;;;;;5111980;28;20055;-76
2023/12/23 02:38:49;;;;;;;37.78;4.40;;;;;;;;;;5111030;28;20030;-76
2023/12/23 02:41:15;;;;;;;26.85;3.72;;;;;;;;;;5111168;28;20059;-76
2023/12/23 02:43:41;;;;;;;26.58;2.70;;;;;;;;;;5096050;28;20066;-76
2023/12/23 02:46:07;;;;;;;27.13;2.85;;;;;;;;;;5091326;28;20063;-75
2023/12/23 02:48:33;;;;;;;23.55;3.00;;;;;;;;;;5091482;28;20020;-75
2023/12/23 02:50:59;;;;;;;38.75;3.90;;;;;;;;;;5090571;28;20016;-75
2023/12/23 02:53:25;;;;;;;24.30;2.83;;;;;;;;;;5090329;28;20392;-75
2023/12/23 02:55:51;;;;;;;32.13;3.08;;;;;;;;;;5091324;28;20035;-75
2023/12/23 02:58:17;;;;;;;24.75;2.97;;;;;;;;;;5091120;28;20040;-76
2023/12/23 03:00:43;;;;;;;29.23;3.53;;;;;;;;;;5090907;28;20020;-75
2023/12/23 03:03:09;;;;;;;24.23;2.97;;;;;;;;;;5090829;28;20368;-75
2023/12/23 03:05:35;;;;;;;24.35;2.70;;;;;;;;;;5090383;28;20021;-76
2023/12/23 03:08:01;;;;;;;19.40;2.72;;;;;;;;;;5091009;28;20035;-75
2023/12/23 03:10:27;;;;;;;28.75;3.40;;;;;;;;;;5090538;28;20498;-76
2023/12/23 03:12:53;;;;;;;20.90;2.60;;;;;;;;;;5091045;28;20024;-75
2023/12/23 03:15:18;;;;;;;27.20;2.97;;;;;;;;;;5110721;28;20482;-75
2023/12/23 03:17:44;;;;;;;19.67;2.65;;;;;;;;;;5110340;28;20033;-75
2023/12/23 03:20:11;;;;;;;35.38;4.60;;;;;;;;;;5111514;28;20073;-76
2023/12/23 03:22:37;;;;;;;22.38;3.08;;;;;;;;;;5108598;28;20135;-76
2023/12/23 03:25:03;;;;;;;21.95;3.85;;;;;;;;;;5112174;28;20024;-77
2023/12/23 03:27:29;;;;;;;22.23;2.67;;;;;;;;;;5106744;27;20042;-75
2023/12/23 03:29:55;;;;;;;21.58;2.65;;;;;;;;;;5090929;28;20472;-74
2023/12/23 03:32:21;;;;;;;24.08;2.75;;;;;;;;;;5094907;28;20059;-75
2023/12/23 03:34:47;;;;;;;20.45;3.33;;;;;;;;;;5098078;28;20039;-76
2023/12/23 03:37:13;;;;;;;24.73;3.17;;;;;;;;;;5101049;28;20032;-75
2023/12/23 03:39:39;;;;;;;21.42;3.00;;;;;;;;;;5096764;28;20028;-76
2023/12/23 03:42:05;;;;;;;21.23;2.80;;;;;;;;;;5095444;28;20399;-74
2023/12/23 03:44:31;;;;;;;22.90;2.65;;;;;;;;;;5093047;28;20024;-76
2023/12/23 03:46:57;;;;;;;21.65;2.10;;;;;;;;;;5090599;28;20428;-74
2023/12/23 03:49:23;;;;;;;19.00;2.28;;;;;;;;;;5090815;28;20429;-75
2023/12/23 03:51:49;;;;;;;15.02;1.98;;;;;;;;;;5088327;28;20031;-74
2023/12/23 03:54:15;;;;;;;17.98;2.38;;;;;;;;;;5090022;28;20479;-76
2023/12/23 03:56:41;;;;;;;20.40;2.05;;;;;;;;;;5090719;28;20060;-76
2023/12/23 03:59:06;;;;;;;15.48;2.10;;;;;;;;;;5090889;28;20035;-75
2023/12/23 04:01:32;;;;;;;8.68;1.50;;;;;;;;;;5093060;28;20591;-75
2023/12/23 04:03:58;;;;;;;21.77;2.22;;;;;;;;;;5094089;28;20020;-74
2023/12/23 04:06:27;;;;;;;16.67;2.25;;;;;;;;;;5094118;28;20479;-74
2023/12/23 04:08:53;;;;;;;15.57;2.00;;;;;;;;;;5094308;28;20475;-74
2023/12/23 04:11:19;;;;;;;16.33;2.00;;;;;;;;;;5093965;28;20024;-74
2023/12/23 04:13:45;;;;;;;12.80;1.63;;;;;;;;;;5094143;28;20504;-74
2023/12/23 04:16:11;;;;;;;12.80;1.67;;;;;;;;;;5094445;28;20028;-74
2023/12/23 04:18:37;;;;;;;13.23;1.98;;;;;;;;;;5094175;28;20070;-76
2023/12/23 04:21:03;;;;;;;20.02;2.00;;;;;;;;;;5093170;28;20025;-75
2023/12/23 04:23:29;;;;;;;17.30;1.92;;;;;;;;;;5095360;28;20494;-76
2023/12/23 04:25:55;;;;;;;16.80;2.30;;;;;;;;;;5094118;28;20024;-75
2023/12/23 04:28:24;;;;;;;13.65;1.73;;;;;;;;;;5094218;28;20476;-75
2023/12/23 04:30:53;;;;;;;11.93;1.80;;;;;;;;;;5093627;28;20471;-73
2023/12/23 04:33:20;;;;;;;16.40;1.63;;;;;;;;;;5104489;28;20036;-77
2023/12/23 04:35:46;;;;;;;11.13;1.52;;;;;;;;;;5109175;28;20487;-75
2023/12/23 04:38:13;;;;;;;13.35;1.80;;;;;;;;;;5100056;28;20108;-76
2023/12/23 04:40:39;;;;;;;20.15;3.05;;;;;;;;;;5096820;28;20462;-76
2023/12/23 04:43:05;;;;;;;16.67;1.90;;;;;;;;;;5105295;28;20027;-75
2023/12/23 04:45:31;;;;;;;13.38;2.15;;;;;;;;;;5113472;28;20020;-74
2023/12/23 04:47:57;;;;;;;13.95;2.20;;;;;;;;;;5107367;28;20397;-77
2023/12/23 04:50:23;;;;;;;20.05;2.47;;;;;;;;;;5105931;28;20039;-75
2023/12/23 04:52:49;;;;;;;15.95;1.67;;;;;;;;;;5108141;28;20110;-76
2023/12/23 04:55:15;;;;;;;27.17;2.22;;;;;;;;;;5103292;28;20028;-78
2023/12/23 04:57:41;;;;;;;11.57;1.60;;;;;;;;;;5105962;28;20035;-79
2023/12/23 05:00:07;;;;;;;22.05;2.38;;;;;;;;;;5104556;28;20028;-74
2023/12/23 05:02:33;;;;;;;18.42;2.30;;;;;;;;;;5113508;27;20045;-75
2023/12/23 05:04:59;;;;;;;24.65;2.70;;;;;;;;;;5113558;28;20454;-76
2023/12/23 05:07:25;;;;;;;14.25;2.35;;;;;;;;;;5113675;28;20103;-75
2023/12/23 05:09:51;;;;;;;18.92;2.20;;;;;;;;;;5114037;28;20447;-77
2023/12/23 05:12:17;;;;;;;24.40;3.00;;;;;;;;;;5111860;28;20027;-76
2023/12/23 05:14:43;;;;;;;16.60;2.55;;;;;;;;;;5113349;28;20028;-74
2023/12/23 05:17:09;;;;;;;16.60;1.98;;;;;;;;;;5113443;28;20024;-75
2023/12/23 05:19:35;;;;;;;19.52;2.03;;;;;;;;;;5113292;28;20026;-74
2023/12/23 05:22:01;;;;;;;12.40;1.60;;;;;;;;;;5112702;28;20024;-75
2023/12/23 05:24:27;;;;;;;11.05;2.15;;;;;;;;;;5112987;28;20090;-75
2023/12/23 05:26:53;;;;;;;11.73;1.77;;;;;;;;;;5114022;28;20466;-74
2023/12/23 05:29:19;;;;;;;17.48;1.80;;;;;;;;;;5114029;28;20035;-76
2023/12/23 05:31:45;;;;;;;11.90;1.80;;;;;;;;;;5112955;28;20117;-76
2023/12/23 05:34:11;;;;;;;23.55;2.83;;;;;;;;;;5121245;28;20399;-78
2023/12/23 05:36:37;;;;;;;13.98;2.22;;;;;;;;;;5111130;28;20035;-78
2023/12/23 05:39:03;;;;;;;20.30;2.42;;;;;;;;;;5106941;28;20020;-76
2023/12/23 05:41:29;;;;;;;22.40;2.45;;;;;;;;;;5109374;28;20012;-77
2023/12/23 05:43:55;;;;;;;16.15;1.63;;;;;;;;;;5103206;28;20031;-79
2023/12/23 05:46:21;;;;;;;18.80;2.25;;;;;;;;;;5116844;28;20023;-77
2023/12/23 05:48:47;;;;;;;19.33;2.20;;;;;;;;;;5103194;28;20495;-76
2023/12/23 05:51:13;;;;;;;17.25;2.30;;;;;;;;;;5105970;28;20028;-75
2023/12/23 05:53:39;;;;;;;21.15;2.40;;;;;;;;;;5104203;28;20027;-76
2023/12/23 05:56:06;;;;;;;20.48;2.17;;;;;;;;;;5112946;28;20390;-76
2023/12/23 05:58:32;;;;;;;21.20;2.20;;;;;;;;;;5113112;28;20495;-75
2023/12/23 06:00:59;;;;;;;20.77;2.38;;;;;;;;;;5112353;27;20100;-75
2023/12/23 06:03:25;;;;;;;20.48;2.28;;;;;;;;;;5113020;27;20096;-78
2023/12/23 06:05:51;;;;;;;22.88;2.85;;;;;;;;;;5112168;28;20059;-76
2023/12/23 06:08:17;;;;;;;18.13;3.08;;;;;;;;;;5112989;28;20035;-77
2023/12/23 06:10:43;;;;;;;18.67;3.00;;;;;;;;;;5111844;28;20130;-75
2023/12/23 06:13:09;;;;;;;12.57;2.40;;;;;;;;;;5112096;28;20030;-75
2023/12/23 06:15:35;;;;;;;21.42;2.78;;;;;;;;;;5112431;28;20458;-77
2023/12/23 06:18:02;;;;;;;17.23;2.45;;;;;;;;;;5111612;28;20027;-75
2023/12/23 06:20:28;;;;;;;24.83;3.28;;;;;;;;;;5112703;28;20358;-76
2023/12/23 06:22:54;;;;;;;23.52;3.03;;;;;;;;;;5112325;28;20023;-75
2023/12/23 06:25:20;;;;;;;21.67;3.10;;;;;;;;;;5112240;28;20027;-76
2023/12/23 06:27:46;;;;;;;16.58;2.35;;;;;;;;;;5112316;28;20024;-76
2023/12/23 06:30:12;;;;;;;15.68;2.40;;;;;;;;;;5111298;28;20031;-76
2023/12/23 06:32:38;;;;;;;17.90;2.13;;;;;;;;;;5111773;28;20080;-75
2023/12/23 06:35:05;;;;;;;15.90;2.50;;;;;;;;;;5108211;28;20039;-76
2023/12/23 06:37:31;;;;;;;20.23;2.72;;;;;;;;;;5101125;28;20028;-76
2023/12/23 06:39:59;;;;;;;14.38;3.45;;;;;;;;;;5096450;28;20372;-77
2023/12/23 06:42:25;;;;;;;13.85;2.47;;;;;;;;;;5096146;28;20024;-75
2023/12/23 06:44:51;;;;;;;12.45;2.58;;;;;;;;;;5104827;28;20023;-75
2023/12/23 06:47:17;;;;;;;15.77;2.15;;;;;;;;;;5111298;28;20023;-76
2023/12/23 06:49:43;;;;;;;15.40;1.83;;;;;;;;;;5103960;28;20028;-76
2023/12/23 06:52:09;;;;;;;11.48;2.13;;;;;;;;;;5108321;28;20023;-77
2023/12/23 06:54:35;;;;;;;6.97;1.20;;;;;;;;;;5100202;28;20376;-75
2023/12/23 06:57:01;;;;;;;7.45;1.27;;;;;;;;;;5100366;28;20020;-76
2023/12/23 06:59:27;;;;;;;9.98;1.20;;;;;;;;;;5099679;28;20119;-77
2023/12/23 07:01:53;;;;;;;5.38;1.08;;;;;;;;;;5106871;28;20401;-78
2023/12/23 07:04:19;;;;;;;8.57;1.38;;;;;;;;;;5105805;28;20035;-77
2023/12/23 07:06:45;;;;;;;8.68;1.33;;;;;;;;;;5101323;28;20031;-77
2023/12/23 07:09:11;;;;;;;6.95;1.63;;;;;;;;;;5109832;28;20115;-75
2023/12/23 07:11:37;;;;;;;8.00;1.70;;;;;;;;;;5104938;28;20020;-77
2023/12/23 07:14:03;;;;;;;5.85;1.35;;;;;;;;;;5101763;28;20032;-77
2023/12/23 07:16:30;;;;;;;6.78;1.40;;;;;;;;;;5099358;28;20111;-75
2023/12/23 07:18:56;;;;;;;7.72;1.88;;;;;;;;;;5109952;28;20020;-75
2023/12/23 07:21:22;;;;;;;5.25;1.13;;;;;;;;;;5109279;28;20038;-77
2023/12/23 07:23:48;;;;;;;5.70;1.55;;;;;;;;;;5108443;28;20049;-76
2023/12/23 07:26:14;;;;;;;7.60;1.50;;;;;;;;;;5112066;28;20020;-75
2023/12/23 07:28:40;;;;;;;5.05;1.30;;;;;;;;;;5100251;28;20428;-77
2023/12/23 07:31:06;;;;;;;8.05;1.65;;;;;;;;;;5099336;28;20111;-79
2023/12/23 07:33:32;;;;;;;8.00;1.63;;;;;;;;;;5112490;28;20027;-76
2023/12/23 07:35:59;;;;;;;5.75;2.75;;;;;;;;;;5110330;28;20023;-75
2023/12/23 07:38:24;;;;;;;9.50;3.33;;;;;;;;;;5111361;28;20027;-76
2023/12/23 07:40:50;;;;;;;7.25;1.88;;;;;;;;;;5099699;28;20032;-76
2023/12/23 07:43:16;;;;;;;5.60;1.35;;;;;;;;;;5107403;28;20100;-74
2023/12/23 07:45:42;;;;;;;4.07;1.33;;;;;;;;;;5111746;28;20024;-78
2023/12/23 07:48:08;;;;;;;3.50;1.20;;;;;;;;;;5112108;28;20428;-76
2023/12/23 07:50:34;;;;;;;8.10;1.52;;;;;;;;;;5111026;28;20039;-75
2023/12/23 07:53:00;;;;;;;4.85;1.50;;;;;;;;;;5110745;28;20032;-76
2023/12/23 07:55:27;;;;;;;4.47;1.35;;;;;;;;;;5110925;28;20024;-76
2023/12/23 07:57:53;;;;;;;6.30;1.80;;;;;;;;;;5110703;28;20367;-75
2023/12/23 08:00:19;;;;;;;7.68;2.25;;;;;;;;;;5110798;28;20036;-76
2023/12/23 08:02:45;;;;;;;6.38;2.28;;;;;;;;;;5109462;28;20029;-78
2023/12/23 08:05:11;;;;;;;6.20;1.88;;;;;;;;;;5112051;28;20048;-77
2023/12/23 08:07:37;;;;;;;4.85;1.60;;;;;;;;;;5109417;28;20035;-75
2023/12/23 08:10:04;;;;;;;4.65;1.55;;;;;;;;;;5092746;28;20319;-76
2023/12/23 08:12:30;;;;;;;9.55;2.20;;;;;;;;;;5090234;28;20463;-74
2023/12/23 08:14:56;;;;;;;6.55;2.13;;;;;;;;;;5090159;28;20232;-77
2023/12/23 08:17:22;;;;;;;10.68;2.60;;;;;;;;;;5090228;28;20028;-76
2023/12/23 08:19:48;;;;;;;8.30;2.10;;;;;;;;;;5090335;28;20104;-79
2023/12/23 08:22:14;;;;;;;8.45;1.50;;;;;;;;;;5089875;28;20646;-76
2023/12/23 08:24:40;;;;;;;10.02;2.17;;;;;;;;;;5089853;28;20107;-74
2023/12/23 08:27:07;;;;;;;7.22;2.20;;;;;;;;;;5090216;28;20097;-75
2023/12/23 08:29:33;;;;;;;11.40;3.03;;;;;;;;;;5089890;28;20020;-75
2023/12/23 08:31:59;;;;;;;8.90;2.38;;;;;;;;;;5089636;28;20395;-76
2023/12/23 08:34:25;;;;;;;6.80;2.75;;;;;;;;;;5089969;28;20028;-76
2023/12/23 08:36:51;;;;;;;6.55;2.50;;;;;;;;;;5090071;28;20547;-76
2023/12/23 08:39:17;;;;;;;9.13;3.35;;;;;;;;;;5089843;28;20028;-75
2023/12/23 08:41:43;;;;;;;17.15;4.10;;;;;;;;;;5088896;28;20042;-75
2023/12/23 08:44:09;;;;;;;10.27;3.40;;;;;;;;;;5089516;28;20479;-77
2023/12/23 08:46:36;;;;;;;9.80;3.00;;;;;;;;;;5090896;28;20028;-76
2023/12/23 08:49:02;;;;;;;11.18;2.70;;;;;;;;;;5093990;28;20104;-75
2023/12/23 08:51:31;;;;;;;8.18;2.42;;;;;;;;;;5093784;28;20554;-75
2023/12/23 08:53:57;;;;;;;9.50;2.45;;;;;;;;;;5094599;28;20028;-77
2023/12/23 08:56:23;;;;;;;5.45;2.10;;;;;;;;;;5094868;28;20020;-77
2023/12/23 08:58:49;;;;;;;9.52;2.38;;;;;;;;;;5094950;28;20028;-76
2023/12/23 09:01:15;;;;;;;7.10;2.30;;;;;;;;;;5094233;28;20066;-75
2023/12/23 09:03:41;;;;;;;10.25;3.35;;;;;;;;;;5094980;28;20039;-77
2023/12/23 09:06:07;;;;;;;12.05;2.97;;;;;;;;;;5097000;28;20024;-76
2023/12/23 09:08:34;;;;;;;11.30;2.47;;;;;;;;;;5095539;28;20024;-76
2023/12/23 09:11:03;;;;;;;9.63;2.90;;;;;;;;;;5095739;28;20529;-79
2023/12/23 09:13:30;;;;;;;11.88;3.08;;;;;;;;;;5097259;28;20024;-78
2023/12/23 09:15:56;;;;;;;12.35;3.50;;;;;;;;;;5097161;28;20081;-78
2023/12/23 09:18:21;;;;;;;6.88;2.90;;;;;;;;;;5096665;28;20028;-78
2023/12/23 09:20:47;;;;;;;9.90;2.92;;;;;;;;;;5097988;28;20483;-78
2023/12/23 09:23:13;;;;;;;7.00;2.58;;;;;;;;;;5099091;28;20023;-77
2023/12/23 09:25:39;;;;;;;13.07;4.45;;;;;;;;;;5097463;28;20099;-77
2023/12/23 09:28:05;;;;;;;11.93;4.55;;;;;;;;;;5095915;28;20108;-77
2023/12/23 09:30:31;;;;;;;10.63;3.50;;;;;;;;;;5098346;28;20020;-77
2023/12/23 09:32:57;;;;;;;12.38;3.88;;;;;;;;;;5095370;28;20462;-77
2023/12/23 09:35:23;;;;;;;8.27;3.40;;;;;;;;;;5093770;28;20126;-78
2023/12/23 09:37:49;;;;;;;8.60;3.70;;;;;;;;;;5093759;28;20384;-77
2023/12/23 09:40:16;;;;;;;7.13;3.25;;;;;;;;;;5093793;28;20020;-78
2023/12/23 09:42:42;;;;;;;9.00;3.55;;;;;;;;;;5094766;28;20056;-77
2023/12/23 09:45:08;;;;;;;9.27;3.05;;;;;;;;;;5093398;28;20080;-77
2023/12/23 09:47:34;;;;;;;13.00;4.20;;;;;;;;;;5093392;28;20024;-78
2023/12/23 09:50:00;;;;;;;10.18;3.63;;;;;;;;;;5093514;28;20063;-78
2023/12/23 09:52:27;;;;;;;10.40;4.07;;;;;;;;;;5093754;28;20506;-77
2023/12/23 09:54:53;;;;;;;12.25;3.88;;;;;;;;;;5093201;28;20079;-76
2023/12/23 09:57:20;;;;;;;8.43;3.65;;;;;;;;;;5094470;28;20356;-80
2023/12/23 09:59:51;;;;;;;9.60;3.70;;;;;;;;;;5098637;28;20499;-78
2023/12/23 10:02:17;;;;;;;11.23;3.80;;;;;;;;;;5096333;28;20086;-77
2023/12/23 10:04:43;;;;;;;8.02;3.58;;;;;;;;;;5094088;28;20475;-78
2023/12/23 10:07:09;;;;;;;8.15;3.58;;;;;;;;;;5094175;28;20075;-76
2023/12/23 10:09:35;;;;;;;15.25;6.00;;;;;;;;;;5095346;28;20044;-78
2023/12/23 10:12:02;;;;;;;13.80;6.05;;;;;;;;;;5094818;28;20028;-77
2023/12/23 10:14:28;;;;;;;9.63;4.38;;;;;;;;;;5093176;28;20039;-76
2023/12/23 10:16:55;;;;;;;10.95;3.55;;;;;;;;;;5092804;28;20028;-76
2023/12/23 10:19:21;;;;;;;8.18;2.80;;;;;;;;;;5093670;28;20035;-77
2023/12/23 10:21:48;;;;;;;14.60;3.42;;;;;;;;;;5092747;28;20500;-76
2023/12/23 10:24:14;;;;;;;8.55;3.20;;;;;;;;;;5092680;28;20073;-77
2023/12/23 10:26:41;;;;;;;7.55;3.10;;;;;;;;;;5092583;28;20031;-75
2023/12/23 10:29:09;;;;;;;10.63;2.85;;;;;;;;;;5092572;28;20028;-75
2023/12/23 10:31:36;;;;;;;9.43;2.95;;;;;;;;;;5092085;28;20055;-77
2023/12/23 10:34:09;;;;;;;9.70;3.30;;;;;;;;;;5092695;28;20429;-77
2023/12/23 10:36:35;;;;;;;12.10;4.40;;;;;;;;;;5092609;28;20031;-76
2023/12/23 10:39:06;;;;;;;8.93;3.08;;;;;;;;;;5092466;28;20020;-76
2023/12/23 10:41:32;;;;;;;10.93;2.75;;;;;;;;;;5095332;28;20028;-77
2023/12/23 10:43:58;;;;;;;13.05;2.42;;;;;;;;;;5097357;28;20045;-78
2023/12/23 10:46:24;;;;;;;12.75;2.33;;;;;;;;;;5095638;28;20038;-77
2023/12/23 10:48:51;;;;;;;9.88;1.92;;;;;;;;;;5095226;28;20020;-79
2023/12/23 10:51:18;;;;;;;15.57;2.13;;;;;;;;;;5095984;28;20556;-77
2023/12/23 10:53:45;;;;;;;7.13;1.70;;;;;;;;;;5095216;28;20126;-78
2023/12/23 10:56:13;;;;;;;6.68;2.33;;;;;;;;;;5096134;28;20050;-78
2023/12/23 10:58:40;;;;;;;10.35;3.72;;;;;;;;;;5094121;28;20039;-76
2023/12/23 11:01:07;;;;;;;22.58;9.63;;;;;;;;;;5091760;28;20032;-76
2023/12/23 11:03:33;;;;;;;10.07;3.45;;;;;;;;;;5092952;28;20035;-77
2023/12/23 11:06:01;;;;;;;7.60;2.83;;;;;;;;;;5092010;28;20099;-78
2023/12/23 11:08:29;;;;;;;10.10;3.20;;;;;;;;;;5092556;28;20027;-78
2023/12/23 11:10:55;;;;;;;11.77;2.88;;;;;;;;;;5091853;28;20094;-77
2023/12/23 11:13:21;;;;;;;12.18;2.90;;;;;;;;;;5091697;28;20156;-77
2023/12/23 11:15:47;;;;;;;10.88;3.15;;;;;;;;;;5091744;28;20048;-77
2023/12/23 11:18:14;;;;;;;10.43;3.83;;;;;;;;;;5092600;28;20024;-78
2023/12/23 11:20:40;;;;;;;13.00;3.83;;;;;;;;;;5094806;28;20099;-78
2023/12/23 11:23:26;;;;;;;11.60;4.20;;;;;;;;;;5094050;28;20056;-78
2023/12/23 11:25:52;;;;;;;107.65;50.08;;;;;;;;;;5093570;28;20036;-76
2023/12/23 11:28:19;;;;;;;12.65;6.07;;;;;;;;;;5092434;28;20032;-77
2023/12/23 11:30:49;;;;;;;12.05;4.55;;;;;;;;;;5108866;28;20026;-77
2023/12/23 11:33:15;;;;;;;9.57;3.00;;;;;;;;;;5111916;28;20047;-79
2023/12/23 11:35:48;;;;;;;6.75;2.50;;;;;;;;;;5111918;28;20024;-78
2023/12/23 11:38:14;;;;;;;11.38;2.20;;;;;;;;;;5110055;28;20118;-77
2023/12/23 11:40:40;;;;;;;8.15;2.28;;;;;;;;;;5110539;28;20498;-76
2023/12/23 11:43:06;;;;;;;8.75;2.20;;;;;;;;;;5113486;28;20031;-78
2023/12/23 11:45:33;;;;;;;7.45;2.10;;;;;;;;;;5113762;28;20012;-77
2023/12/23 11:47:59;;;;;;;9.20;3.38;;;;;;;;;;5113064;28;20032;-76
2023/12/23 11:50:26;;;;;;;10.93;2.47;;;;;;;;;;5114303;28;20394;-78
2023/12/23 11:52:52;;;;;;;9.43;2.65;;;;;;;;;;5114255;28;20497;-78
2023/12/23 11:55:18;;;;;;;5.60;1.83;;;;;;;;;;5113209;28;20568;-77
2023/12/23 11:57:44;;;;;;;8.73;2.63;;;;;;;;;;5114014;28;20026;-79
2023/12/23 12:00:11;;;;;;;26.95;12.35;;;;;;;;;;5112873;28;20028;-77
2023/12/23 12:02:37;;;;;;;7.18;3.13;;;;;;;;;;5112983;28;20019;-77
2023/12/23 12:05:03;;;;;;;10.18;2.33;;;;;;;;;;5115022;28;20065;-78
2023/12/23 12:07:30;;;;;;;12.15;2.90;;;;;;;;;;5112335;28;20032;-76
2023/12/23 12:09:56;;;;;;;18.88;5.00;;;;;;;;;;5108750;28;20437;-76
2023/12/23 12:12:22;;;;;;;16.67;5.15;;;;;;;;;;5110510;28;20292;-78
2023/12/23 12:14:48;;;;;;;13.02;2.60;;;;;;;;;;5112079;28;20051;-78
2023/12/23 12:17:14;;;;;;;16.17;5.32;;;;;;;;;;5114921;28;20034;-78
2023/12/23 12:19:40;;;;;;;13.10;3.70;;;;;;;;;;5113835;28;20035;-82
2023/12/23 12:22:06;;;;;;;13.65;4.05;;;;;;;;;;5114628;28;20439;-79
2023/12/23 12:24:33;;;;;;;18.50;7.85;;;;;;;;;;5113961;28;20095;-77
2023/12/23 12:26:59;;;;;;;11.63;3.45;;;;;;;;;;5114331;28;20544;-77
2023/12/23 12:29:25;;;;;;;10.32;3.47;;;;;;;;;;5114287;27;20032;-76
2023/12/23 12:31:52;;;;;;;9.45;2.80;;;;;;;;;;5113284;28;20026;-76
2023/12/23 12:34:18;;;;;;;8.35;2.33;;;;;;;;;;5114835;28;20051;-79
2023/12/23 12:36:44;;;;;;;9.32;1.77;;;;;;;;;;5111960;28;20028;-76
2023/12/23 12:39:12;;;;;;;10.25;3.78;;;;;;;;;;5114823;28;20023;-79
2023/12/23 12:41:39;;;;;;;8.25;1.92;;;;;;;;;;5117436;28;20056;-76
2023/12/23 12:44:05;;;;;;;10.98;1.88;;;;;;;;;;5118147;28;20081;-78
2023/12/23 12:46:32;;;;;;;6.68;1.83;;;;;;;;;;5117345;28;20020;-76
2023/12/23 12:48:58;;;;;;;10.25;2.13;;;;;;;;;;5114909;28;20015;-78
2023/12/23 12:51:24;;;;;;;8.70;2.22;;;;;;;;;;5113486;28;20020;-76
2023/12/23 12:53:50;;;;;;;9.63;2.60;;;;;;;;;;5115639;27;20019;-79
2023/12/23 12:56:20;;;;;;;6.07;1.80;;;;;;;;;;5118284;28;20023;-78
2023/12/23 12:58:46;;;;;;;8.25;1.90;;;;;;;;;;5117236;28;20494;-78
2023/12/23 13:01:12;;;;;;;7.30;1.95;;;;;;;;;;5118813;28;20020;-79
2023/12/23 13:03:38;;;;;;;9.93;1.90;;;;;;;;;;5118982;28;20024;-80
2023/12/23 13:06:05;;;;;;;6.63;1.65;;;;;;;;;;5119893;28;20026;-79
2023/12/23 13:08:31;;;;;;;7.90;2.13;;;;;;;;;;5117667;28;20099;-78
2023/12/23 13:10:57;;;;;;;8.82;2.10;;;;;;;;;;5108249;28;20119;-78
2023/12/23 13:13:23;;;;;;;8.55;2.00;;;;;;;;;;5115483;28;20111;-77
2023/12/23 13:15:51;;;;;;;6.43;1.90;;;;;;;;;;5096952;27;20359;-79
2023/12/23 13:18:17;;;;;;;7.18;1.45;;;;;;;;;;5096388;28;20130;-78
2023/12/23 13:20:43;;;;;;;5.32;1.70;;;;;;;;;;5093559;28;20055;-77
2023/12/23 13:23:09;;;;;;;9.23;4.25;;;;;;;;;;5093512;28;20020;-75
2023/12/23 13:25:35;;;;;;;7.40;1.75;;;;;;;;;;5093826;28;20069;-77
2023/12/23 13:28:01;;;;;;;5.93;1.45;;;;;;;;;;5094142;28;20101;-75
2023/12/23 13:30:27;;;;;;;7.32;1.55;;;;;;;;;;5093499;28;20045;-79
2023/12/23 13:32:53;;;;;;;6.78;1.02;;;;;;;;;;5092290;28;20456;-78
2023/12/23 13:35:19;;;;;;;6.38;1.50;;;;;;;;;;5106673;28;20059;-77
2023/12/23 13:37:45;;;;;;;14.05;2.22;;;;;;;;;;5114147;28;20487;-77
2023/12/23 13:40:12;;;;;;;11.25;2.20;;;;;;;;;;5115207;28;20032;-77
2023/12/23 13:42:38;;;;;;;13.35;1.58;;;;;;;;;;5115144;28;20429;-78
2023/12/23 13:45:04;;;;;;;4.95;1.35;;;;;;;;;;5114692;28;20455;-78
2023/12/23 13:47:33;;;;;;;4.38;1.45;;;;;;;;;;5114500;28;20027;-78
2023/12/23 13:50:00;;;;;;;4.88;1.55;;;;;;;;;;5115397;28;20088;-79
2023/12/23 13:52:26;;;;;;;3.33;1.27;;;;;;;;;;5116143;28;20024;-79
2023/12/23 13:54:52;;;;;;;6.47;1.20;;;;;;;;;;5116471;28;20092;-80
2023/12/23 13:57:18;;;;;;;38.95;20.00;;;;;;;;;;5117249;28;20023;-78
2023/12/23 13:59:44;;;;;;;7.28;3.35;;;;;;;;;;5116570;28;20031;-79
2023/12/23 14:02:10;;;;;;;3.65;1.60;;;;;;;;;;5114125;28;20059;-78
2023/12/23 14:04:37;;;;;;;6.82;2.08;;;;;;;;;;5114034;28;20049;-79
2023/12/23 14:07:03;;;;;;;6.43;2.22;;;;;;;;;;5115548;28;20432;-77
2023/12/23 14:09:30;;;;;;;5.50;1.40;;;;;;;;;;5114471;28;20035;-78
2023/12/23 14:11:56;;;;;;;5.00;1.60;;;;;;;;;;5116563;28;20024;-78
2023/12/23 14:14:22;;;;;;;9.43;1.90;;;;;;;;;;5117178;28;20028;-77
2023/12/23 14:16:48;;;;;;;14.13;5.25;;;;;;;;;;5115039;28;20132;-78
2023/12/23 14:19:14;;;;;;;6.32;1.77;;;;;;;;;;5116429;28;20027;-79
2023/12/23 14:21:40;;;;;;;7.05;2.13;;;;;;;;;;5122234;28;20034;-78
2023/12/23 14:24:06;;;;;;;9.77;2.78;;;;;;;;;;5120773;28;20045;-80
2023/12/23 14:26:32;;;;;;;5.63;1.42;;;;;;;;;;5116941;28;20034;-78
2023/12/23 14:28:58;;;;;;;4.53;1.52;;;;;;;;;;5118034;28;20118;-76